Clearview, Texas
Current Conditions -  °F | °C
As of 4:35 AM on Saturday 22 Nov 2014 (Local Time) from KGYB Reporting Station
Scattered Clouds Scattered Clouds  
Wind Chill: 17°   Ceiling: Unl
Heat Index: 17°   Visibility: 7mi
Dew Point: 16°   Wind: 10mph
Humidity: 94%   Direction: 140°SE
Pressure: 30.07"   Gusts: 16mph
Location:  30.1644°N, 97.2747°W
Report Text: KGYB 221035Z AUTO 14009G14KT 7SM SCT007 17/16 A3007 RMK AO2 T01710162
Loading
Personal Weather Stations






























Interactive Weather Map New forecast layout! Learn more

10-Day Weather Forecast

Advertisements
Track Severe Weather on mobile